• Join FlightAware (Why Join?)
  • Login
  • US Flag 
03:24PM EDT


 

Airport Tracker/Info


-or-


 

Live Flight TrackerFlight Track Log ✈ A6-EDM ✈ 10-Apr-2013 ✈ KJFK - OMDB / DXB

Flight Track Log - Related Links

Times and Time Zones

All times are in EDT time to prevent confusion due to time zone crossing. See the A6-EDM flight status page for this flight to view local times or setup timezone preferences in your user account.

Time Position Orientation Groundspeed Altitude Reporting Facility
EDT Latitude Longitude Course Direction KTS MPH feet Rate Location/Type
12:41PM 40.6240 -73.7840 211° Southwest 165 190 200  Level FlightAware
12:42PM 40.6050 -73.8000 213° Southwest 177 204 700 1,020 Climbing FlightAware
12:42PM 40.5980 -73.8060 213° Southwest 182 209 900 1,200 Climbing FlightAware
12:42PM 40.5750 -73.8240 211° Southwest 194 223 1,500 1,020 Climbing FlightAware
12:43PM 40.5640 -73.8300 203° Southwest 212 244 1,700 1,020 Climbing FlightAware
12:43PM 40.5380 -73.8180 161° South 247 284 2,200 1,320 Climbing FlightAware
12:43PM 40.5300 -73.7990 119° Southeast 269 310 2,600 1,440 Climbing FlightAware
12:43PM 40.5270 -73.7810 102° East 283 326 2,800 1,920 Climbing FlightAware
12:44PM 40.5430 -73.7340 66° East 288 331 3,900 2,400 Climbing FlightAware
12:44PM 40.5670 -73.6940 52° Northeast 297 342 5,200 2,580 Climbing FlightAware
12:45PM 40.5930 -73.6500 52° Northeast 302 348 6,500 2,700 Climbing FlightAware
12:45PM 40.6012 -73.6382 48° Northeast 301 346 6,900 2,820 Climbing FlightAware ADS-B
12:45PM 40.6179 -73.6179 43° Northeast 303 349 7,600 2,520 Climbing FlightAware ADS-B
12:46PM 40.6680 -73.5720 35° Northeast 295 339 9,600 2,580 Climbing FlightAware
12:46PM 40.6852 -73.5626 23° Northeast 296 341 10,100 1,200 Climbing FlightAware ADS-B
12:47PM 40.7880 -73.5010 24° Northeast 374 430 11,300 1,140 Climbing FlightAware
12:48PM 40.8540 -73.4610 25° Northeast 402 463 12,300 1,800 Climbing FlightAware
12:49PM 40.9200 -73.4200 25° Northeast 412 474 13,700 1,920 Climbing FlightAware
12:50PM 40.9980 -73.3730 24° Northeast 425 489 15,100 1,980 Climbing FlightAware
12:50PM 41.0650 -73.3320 25° Northeast 433 498 16,400 2,100 Climbing FlightAware
12:51PM 41.1440 -73.2840 25° Northeast 439 505 17,900 1,980 Climbing FlightAware
12:52PM 41.2300 -73.2300 25° Northeast 446 513 19,400 1,740 Climbing FlightAware
12:52PM 41.2970 -73.1770 31° Northeast 464 534 20,400 1,920 Climbing FlightAware
12:53PM 41.3770 -73.0910 39° Northeast 466 536 22,200 1,920 Climbing FlightAware
12:54PM 41.4350 -73.0070 47° Northeast 478 550 23,200 1,500 Climbing FlightAware
12:54PM 41.4820 -72.9170 55° Northeast 487 560 24,100 1,020 Climbing FlightAware
12:55PM 41.5350 -72.7980 59° Northeast 490 564 24,700 900 Climbing FlightAware
12:56PM 41.5820 -72.6930 59° Northeast 499 574 25,500 1,260 Climbing FlightAware
12:57PM 41.6340 -72.5660 61° Northeast 506 582 26,500 2,160 Climbing FlightAware
12:57PM 41.6440 -72.5320 69° East 27,600 2,760 Climbing FlightAware
12:58PM 41.6960 -72.3930 63° Northeast 491 565 29,300 2,520 Climbing FlightAware
12:58PM 41.7470 -72.2610 63° Northeast 465 535 31,400 1,080 Climbing FlightAware
01:01PM 41.8950 -71.8670 63° Northeast 495 570 33,000 540 Climbing FlightAware
01:02PM 41.9440 -71.7370 63° Northeast 504 580 33,300 300 Climbing FlightAware
01:02PM 41.9890 -71.6140 64° Northeast 519 597 33,500 300 Climbing FlightAware
01:03PM 42.0310 -71.5030 63° Northeast 527 606 33,700 600 Climbing FlightAware
01:04PM 42.0820 -71.3640 64° Northeast 528 608 34,400 720 Climbing FlightAware
01:04PM 42.1260 -71.2440 64° Northeast 531 611 34,800 420 Climbing FlightAware
01:05PM 42.1700 -71.1220 64° Northeast 529 609 35,000 120 Climbing FlightAware
01:06PM 42.2170 -70.9920 64° Northeast 528 608 35,000  Level FlightAware
01:06PM 42.2560 -70.8860 64° Northeast 527 606 35,000  Level FlightAware
01:07PM 42.3070 -70.7440 64° Northeast 525 604 35,000  Level FlightAware
01:08PM 42.3490 -70.6260 64° Northeast 529 609 35,000  Level FlightAware
01:09PM 42.3910 -70.5100 64° Northeast 531 611 35,000  Level FlightAware
01:09PM 42.4390 -70.3740 64° Northeast 532 612 35,000  Level FlightAware
01:10PM 42.4820 -70.2530 64° Northeast 534 615 35,000  Level FlightAware
01:11PM 42.5240 -70.1340 64° Northeast 535 616 35,000  Level FlightAware
01:11PM 42.5760 -69.9860 64° Northeast 536 617 35,000  Level FlightAware
01:12PM 42.6120 -69.8840 64° Northeast 535 616 35,000  Level FlightAware
01:13PM 42.6970 -69.6370 65° Northeast 533 613 35,000  Level FlightAware
01:14PM 42.7510 -69.4820 65° Northeast 536 617 35,000  Level FlightAware
01:15PM 42.7920 -69.3600 65° Northeast 538 619 35,000  Level FlightAware
01:16PM 42.8400 -69.2190 65° Northeast 539 620 35,000  Level FlightAware
01:16PM 42.8810 -69.0990 65° Northeast 538 619 35,000  Level FlightAware
01:17PM 42.9270 -68.9640 65° Northeast 533 613 35,000  Level FlightAware
01:18PM 42.9690 -68.8370 66° East 529 609 35,000  Level FlightAware
01:19PM 43.0320 -68.6490 65° Northeast 521 600 35,000  Level FlightAware
01:20PM 43.0770 -68.5110 66° East 520 598 35,000  Level FlightAware
01:20PM 43.1180 -68.3910 65° Northeast 520 598 35,000  Level FlightAware
01:22PM 43.1930 -68.1610 66° East 521 600 35,000  Level FlightAware
01:22PM 43.2260 -68.0580 66° East 521 600 35,000  Level FlightAware
01:23PM 43.2600 -67.9550 66° East 521 600 35,000  Level FlightAware
01:24PM 43.3140 -67.7900 66° East 517 595 35,000  Level FlightAware
01:24PM 43.3540 -67.6660 66° East 517 595 35,000  Level FlightAware
01:25PM 43.3970 -67.5310 66° East 518 596 35,000  Level FlightAware
01:26PM 43.4360 -67.4080 66° East 519 597 35,000  Level FlightAware
01:26PM 43.4790 -67.2750 66° East 520 598 35,000  Level FlightAware
01:27PM 43.5180 -67.1490 67° East 521 600 35,000  Level FlightAware
01:28PM 43.5540 -67.0300 67° East 525 604 35,000  Level FlightAware
01:28PM 43.5820 -66.8990 74° East 538 619 35,000  Level FlightAware
01:29PM 43.6070 -66.7440 77° East 538 619 35,000  Level FlightAware
01:30PM 43.6290 -66.6130 77° East 537 618 35,000  Level FlightAware
01:31PM 43.6540 -66.4600 77° East 542 624 35,000  Level FlightAware
01:31PM 43.6740 -66.3300 78° East 543 625 35,000  Level FlightAware
01:32PM 43.6990 -66.1770 77° East 545 627 35,000  Level FlightAware
01:33PM 43.7210 -66.0370 78° East 546 628 35,000  Level FlightAware
01:33PM 43.7450 -65.8820 78° East 545 627 35,000  Level FlightAware
01:34PM 43.7670 -65.7460 77° East 544 626 35,000  Level FlightAware
01:35PM 43.7870 -65.6100 78° East 543 625 35,000  Level FlightAware
01:36PM 43.8110 -65.4550 78° East 545 627 35,000  Level FlightAware
01:36PM 43.8310 -65.3210 78° East 547 629 35,000  Level FlightAware
01:37PM 43.8540 -65.1690 78° East 548 631 35,000  Level FlightAware
01:38PM 43.8750 -65.0290 78° East 547 629 35,000  Level FlightAware
01:38PM 43.8950 -64.8910 79° East 548 631 35,000  Level FlightAware
01:39PM 43.9180 -64.7360 78° East 547 629 35,000  Level FlightAware
01:40PM 43.9370 -64.6060 78° East 547 629 35,000  Level FlightAware
01:40PM 43.9540 -64.4880 79° East 548 631 35,000  Level FlightAware
01:41PM 43.9750 -64.3320 79° East 548 631 35,000  Level FlightAware
01:42PM 43.9920 -64.2150 79° East 548 631 35,000  Level FlightAware
01:42PM 44.0080 -64.0970 79° East 548 631 35,000  Level FlightAware
01:43PM 44.0250 -63.9790 79° East 548 631 35,000  Level FlightAware
01:44PM 44.0410 -63.8620 79° East 548 631 35,000  Level FlightAware
01:45PM 44.0620 -63.7150 79° East 548 631 35,000  Level FlightAware
01:45PM 44.0780 -63.5970 79° East 548 631 35,000  Level FlightAware
01:46PM 44.0940 -63.4790 79° East 548 631 35,000  Level FlightAware
01:47PM 44.1110 -63.3610 79° East 548 631 35,000  Level FlightAware
01:47PM 44.1270 -63.2430 79° East 548 631 35,000  Level FlightAware
01:48PM 44.1480 -63.0960 79° East 548 631 35,000  Level FlightAware
01:49PM 44.1640 -62.9780 79° East 548 631 35,000  Level FlightAware
01:49PM 44.1810 -62.8600 79° East 548 631 35,000  Level FlightAware
01:50PM 44.1970 -62.7420 79° East 548 631 35,000  Level FlightAware
01:50PM 44.2167 -62.3333 79° East 560 644 35,000  Level Gander Center
01:51PM 44.2333 -62.1167 84° East 570 656 35,000  Level Gander Center
01:52PM 44.2833 -61.8833 73° East 570 656 35,000  Level Gander Center
01:53PM 44.3000 -61.6833 83° East 570 656 35,000  Level Gander Center
01:54PM 44.3333 -61.4500 79° East 570 656 35,000  Level Gander Center
01:55PM 44.3500 -61.2333 84° East 570 656 35,000  Level Gander Center
01:56PM 44.3833 -61.0333 77° East 570 656 35,000  Level Gander Center
01:57PM 44.4000 -60.8000 84° East 580 667 35,000  Level Gander Center
01:58PM 44.4167 -60.6000 83° East 580 667 35,000  Level Moncton Center
01:59PM 44.4500 -60.3833 78° East 580 667 35,000  Level Moncton Center
02:00PM 44.4667 -60.1500 84° East 580 667 35,000  Level Moncton Center
02:01PM 44.5000 -59.9500 77° East 580 667 35,000  Level Moncton Center
02:02PM 44.5333 -59.7000 79° East 570 656 35,000  Level Gander Center
02:03PM 44.5833 -59.4500 74° East 570 656 35,000  Level Gander Center
02:04PM 44.6000 -59.2667 83° East 570 656 35,000  Level Gander Center
02:05PM 44.6500 -59.0333 73° East 570 656 35,000  Level Gander Center
02:06PM 44.7000 -58.8167 72° East 570 656 35,000  Level Gander Center
02:07PM 44.7333 -58.6000 78° East 570 656 35,000  Level Gander Center
02:08PM 44.7667 -58.4000 77° East 570 656 35,000  Level Gander Center
02:09PM 44.8000 -58.1833 78° East 570 656 35,000  Level Gander Center
02:10PM 44.8500 -57.9500 73° East 560 644 35,000  Level Gander Center
02:11PM 44.8667 -57.7500 83° East 560 644 35,000  Level Gander Center
02:12PM 44.9167 -57.5333 72° East 560 644 35,000  Level Gander Center
02:13PM 44.9333 -57.3333 83° East 560 644 35,000  Level Gander Center
02:14PM 44.9833 -57.1167 72° East 560 644 35,000  Level Gander Center
02:15PM 45.0000 -56.9000 84° East 560 644 35,000  Level Gander Center
02:16PM 45.0167 -56.7000 83° East 550 633 35,000  Level Moncton Center
02:17PM 45.0667 -56.4667 73° East 560 644 35,000  Level Gander Center
02:18PM 45.1167 -56.2500 72° East 560 644 35,000  Level Gander Center
02:19PM 45.1333 -56.0333 84° East 560 644 35,000  Level Gander Center
02:25PM 45.3210 -54.9570 84° East 554 638 35,000  Level FlightAware
02:25PM 45.3460 -54.8050 77° East 554 638 35,000  Level FlightAware
02:26PM 45.3650 -54.6840 77° East 554 638 35,000  Level FlightAware
02:27PM 45.3960 -54.4860 77° East 560 644 35,000  Level FlightAware
02:28PM 45.4190 -54.3340 78° East 559 643 35,000  Level FlightAware
02:28PM 45.4430 -54.1790 78° East 558 642 35,000  Level FlightAware
02:29PM 45.4720 -53.9930 77° East 558 642 35,000  Level FlightAware
02:30PM 45.4920 -53.8710 77° East 558 642 35,000  Level FlightAware
02:31PM 45.5120 -53.7490 77° East 558 642 35,000  Level FlightAware
02:31PM 45.5320 -53.6270 77° East 558 642 35,000  Level FlightAware
02:32PM 45.5560 -53.4740 77° East 558 642 35,000  Level FlightAware
02:33PM 45.5760 -53.3520 77° East 558 642 35,000  Level FlightAware
02:33PM 45.5960 -53.2300 77° East 558 642 35,000  Level FlightAware
02:34PM 45.6150 -53.1070 78° East 558 642 35,000  Level FlightAware
02:35PM 45.6350 -52.9850 77° East 558 642 35,000  Level FlightAware
02:36PM 45.6600 -52.8320 77° East 558 642 35,000  Level FlightAware
02:36PM 45.6800 -52.7100 77° East 558 642 35,000  Level FlightAware
02:37PM 45.6990 -52.5870 77° East 558 642 35,000  Level FlightAware
02:38PM 45.7190 -52.4650 77° East 558 642 35,000  Level FlightAware
02:38PM 45.7390 -52.3420 77° East 558 642 35,000  Level FlightAware
02:38PM 45.7500 -51.9167 77° East 560 644 35,000  Level Gander Center
02:39PM 45.7667 -51.7000 84° East 560 644 35,000  Level Gander Center
02:40PM 45.7833 -51.5000 83° East 570 656 35,000  Level Moncton Center
02:40PM 45.7833 -51.5000 83° East 560 644 35,000  Level Gander Center
02:41PM 45.8167 -51.3000 76° East 560 644 35,000  Level Moncton Center
02:42PM 45.8500 -51.0333 80° East 560 644 35,000  Level Gander Center
02:43PM 45.8833 -50.8333 76° East 570 656 35,000  Level Gander Center
02:44PM 45.9000 -50.6000 84° East 560 644 35,000  Level Gander Center
02:45PM 45.9333 -50.4000 76° East 560 644 35,000  Level Gander Center
02:46PM 45.9667 -50.1500 79° East 560 644 35,000  Level Gander Center
02:47PM 45.9667 -49.9500 90° East 570 656 35,000  Level Gander Center
02:48PM 46.0000 -49.7333 77° East 570 656 35,000  Level Gander Center
02:49PM 46.0333 -49.5000 78° East 560 644 35,000  Level Gander Center
02:50PM 46.0500 -49.2833 84° East 570 656 35,000  Level Gander Center
02:51PM 46.0833 -49.2000 60° Northeast 570 656 35,000  Level Gander Center
02:52PM 46.1000 -48.9500 84° East 570 656 35,000  Level Gander Center
02:52PM 46.1167 -48.8500 76° East 570 656 35,000  Level Gander Center
02:53PM 46.1500 -48.6000 79° East 560 644 35,000  Level Gander Center
02:54PM 46.1667 -48.5167 74° East 570 656 35,000  Level Gander Center
02:55PM 46.2000 -48.3000 77° East 560 644 35,000  Level Gander Center
02:56PM 46.2167 -48.1000 83° East 550 633 35,000  Level Gander Center
02:57PM 46.2667 -47.8667 73° East 550 633 35,000  Level Gander Center
02:58PM 46.2833 -47.6667 83° East 560 644 35,000  Level Gander Center
02:59PM 46.3000 -47.4333 84° East 540 621 35,000  Level Gander Center
03:00PM 46.3333 -47.2333 76° East 540 621 35,000  Level Gander Center
03:00PM 46.3333 -47.1000 90° East 540 621 35,000  Level Gander Center
03:01PM 46.3667 -46.9167 75° East 540 621 35,000  Level Gander Center
03:04PM 46.4093 -46.5655 80° East  Level FlightAware Approximate
03:11PM 46.5766 -45.0847 80° East  Level FlightAware Approximate
03:12PM 46.5990 -44.8724 81° East  Level FlightAware Approximate
03:13PM 46.6209 -44.6600 81° East  Level FlightAware Approximate
03:14PM 46.6424 -44.4473 82° East  Level FlightAware Approximate
03:15PM 46.6636 -44.2346 82° East  Level FlightAware Approximate
03:16PM 46.6844 -44.0216 82° East  Level FlightAware Approximate
03:17PM 46.7047 -43.8085 82° East  Level FlightAware Approximate
03:18PM 46.7247 -43.5952 82° East  Level FlightAware Approximate
03:19PM 46.7443 -43.3818 82° East  Level FlightAware Approximate
03:20PM 46.7635 -43.1682 82° East  Level FlightAware Approximate
03:21PM 46.7822 -42.9545 83° East  Level FlightAware Approximate
03:22PM 46.8006 -42.7406 83° East  Level FlightAware Approximate
03:23PM 46.8186 -42.5266 83° East  Level FlightAware Approximate
03:24PM 46.8362 -42.3124 83° East  Level FlightAware Approximate
03:25PM 46.8534 -42.0981 83° East  Level FlightAware Approximate
03:26PM 46.8702 -41.8837 83° East  Level FlightAware Approximate
03:27PM 46.8865 -41.6691 84° East  Level FlightAware Approximate
03:28PM 46.9025 -41.4544 84° East  Level FlightAware Approximate
03:29PM 46.9181 -41.2396 84° East  Level FlightAware Approximate
03:30PM 46.9333 -41.0246 84° East  Level FlightAware Approximate
03:31PM 46.9481 -40.8096 84° East  Level FlightAware Approximate
03:32PM 46.9624 -40.5944 84° East  Level FlightAware Approximate
03:33PM 46.9764 -40.3791 84° East  Level FlightAware Approximate
03:34PM 46.9900 -40.1637 85° East  Level FlightAware Approximate
03:35PM 47.0074 -39.9492 78° East  Level FlightAware Approximate
03:36PM 47.0380 -39.7375 78° East  Level FlightAware Approximate
03:37PM 47.0682 -39.5255 78° East  Level FlightAware Approximate
03:38PM 47.0981 -39.3132 78° East  Level FlightAware Approximate
03:39PM 47.1275 -39.1007 78° East  Level FlightAware Approximate
03:40PM 47.1566 -38.8880 79° East  Level FlightAware Approximate
03:41PM 47.1852 -38.6750 79° East  Level FlightAware Approximate
03:42PM 47.2135 -38.4618 79° East  Level FlightAware Approximate
03:43PM 47.2414 -38.2484 79° East  Level FlightAware Approximate
03:44PM 47.2688 -38.0348 79° East  Level FlightAware Approximate
03:45PM 47.2959 -37.8209 79° East  Level FlightAware Approximate
03:46PM 47.3226 -37.6068 80° East  Level FlightAware Approximate
03:47PM 47.3489 -37.3926 80° East  Level FlightAware Approximate
03:48PM 47.3747 -37.1781 80° East  Level FlightAware Approximate
03:49PM 47.4002 -36.9633 80° East  Level FlightAware Approximate
03:50PM 47.4253 -36.7484 80° East  Level FlightAware Approximate
03:51PM 47.4500 -36.5333 80° East  Level FlightAware Approximate
03:52PM 47.4742 -36.3180 80° East  Level FlightAware Approximate
03:53PM 47.4981 -36.1025 81° East  Level FlightAware Approximate
03:54PM 47.5216 -35.8867 81° East  Level FlightAware Approximate
03:55PM 47.5446 -35.6708 81° East  Level FlightAware Approximate
03:56PM 47.5673 -35.4548 81° East  Level FlightAware Approximate
03:57PM 47.5895 -35.2385 81° East  Level FlightAware Approximate
03:58PM 47.6114 -35.0220 81° East  Level FlightAware Approximate
03:59PM 47.6328 -34.8054 82° East  Level FlightAware Approximate
04:00PM 47.6538 -34.5886 82° East  Level FlightAware Approximate
04:01PM 47.6744 -34.3716 82° East  Level FlightAware Approximate
04:02PM 47.6946 -34.1544 82° East  Level FlightAware Approximate
04:03PM 47.7144 -33.9371 82° East  Level FlightAware Approximate
04:04PM 47.7338 -33.7196 82° East  Level FlightAware Approximate
04:05PM 47.7528 -33.5020 83° East  Level FlightAware Approximate
04:06PM 47.7713 -33.2842 83° East  Level FlightAware Approximate
04:07PM 47.7895 -33.0662 83° East  Level FlightAware Approximate
04:08PM 47.8072 -32.8481 83° East  Level FlightAware Approximate
04:09PM 47.8245 -32.6298 83° East  Level FlightAware Approximate
04:10PM 47.8414 -32.4114 83° East  Level FlightAware Approximate
04:11PM 47.8579 -32.1929 84° East  Level FlightAware Approximate
04:12PM 47.8740 -31.9742 84° East  Level FlightAware Approximate
04:13PM 47.8897 -31.7554 84° East  Level FlightAware Approximate
04:14PM 47.9049 -31.5365 84° East  Level FlightAware Approximate
04:15PM 47.9197 -31.3174 84° East  Level FlightAware Approximate
04:16PM 47.9342 -31.0982 84° East  Level FlightAware Approximate
04:17PM 47.9482 -30.8789 84° East  Level FlightAware Approximate
04:18PM 47.9617 -30.6595 85° East  Level FlightAware Approximate
04:19PM 47.9749 -30.4399 85° East  Level FlightAware Approximate
04:20PM 47.9877 -30.2203 85° East  Level FlightAware Approximate
04:21PM 48.0000 -30.0005 85° East  Level FlightAware Approximate
04:22PM 48.0093 -29.7804 86° East  Level FlightAware Approximate
04:23PM 48.0183 -29.5602 86° East  Level FlightAware Approximate
04:24PM 48.0268 -29.3399 87° East  Level FlightAware Approximate
04:25PM 48.0349 -29.1195 87° East  Level FlightAware Approximate
04:26PM 48.0426 -28.8991 87° East  Level FlightAware Approximate
04:27PM 48.0499 -28.6786 87° East  Level FlightAware Approximate
04:28PM 48.0567 -28.4580 87° East  Level FlightAware Approximate
04:29PM 48.0631 -28.2374 87° East  Level FlightAware Approximate
04:30PM 48.0691 -28.0168 88° East  Level FlightAware Approximate
04:31PM 48.0747 -27.7961 88° East  Level FlightAware Approximate
04:32PM 48.0798 -27.5753 88° East  Level FlightAware Approximate
04:33PM 48.0845 -27.3545 88° East  Level FlightAware Approximate
04:34PM 48.0888 -27.1337 88° East  Level FlightAware Approximate
04:35PM 48.0927 -26.9128 88° East  Level FlightAware Approximate
04:36PM 48.0962 -26.6919 89° East  Level FlightAware Approximate
04:37PM 48.0992 -26.4710 89° East  Level FlightAware Approximate
04:38PM 48.1018 -26.2500 89° East  Level FlightAware Approximate
04:39PM 48.1040 -26.0291 89° East  Level FlightAware Approximate
04:40PM 48.1058 -25.8081 89° East  Level FlightAware Approximate
04:41PM 48.1071 -25.5870 89° East  Level FlightAware Approximate
04:42PM 48.1080 -25.3660 90° East  Level FlightAware Approximate
04:43PM 48.1085 -25.1450 90° East  Level FlightAware Approximate
04:44PM 48.1086 -24.9240 90° East  Level FlightAware Approximate
04:45PM 48.1082 -24.7030 90° East  Level FlightAware Approximate
04:46PM 48.1074 -24.4820 90° East  Level FlightAware Approximate
04:47PM 48.1062 -24.2609 90° East  Level FlightAware Approximate
04:48PM 48.1046 -24.0399 91° East  Level FlightAware Approximate
04:49PM 48.1026 -23.8190 91° East  Level FlightAware Approximate
04:50PM 48.1001 -23.5980 91° East  Level FlightAware Approximate
04:51PM 48.0972 -23.3771 91° East  Level FlightAware Approximate
04:52PM 48.0938 -23.1562 91° East  Level FlightAware Approximate
04:53PM 48.0901 -22.9353 91° East  Level FlightAware Approximate
04:54PM 48.0859 -22.7144 92° East  Level FlightAware Approximate
04:55PM 48.0813 -22.4936 92° East  Level FlightAware Approximate
04:56PM 48.0763 -22.2728 92° East  Level FlightAware Approximate
04:57PM 48.0709 -22.0521 92° East  Level FlightAware Approximate
04:58PM 48.0650 -21.8314 92° East  Level FlightAware Approximate
04:59PM 48.0587 -21.6108 92° East  Level FlightAware Approximate
05:00PM 48.0520 -21.3903 93° East  Level FlightAware Approximate
05:01PM 48.0449 -21.1698 93° East  Level FlightAware Approximate
05:02PM 48.0373 -20.9493 93° East  Level FlightAware Approximate
05:03PM 48.0294 -20.7289 93° East  Level FlightAware Approximate
05:04PM 48.0210 -20.5086 93° East  Level FlightAware Approximate
05:05PM 48.0122 -20.2884 93° East  Level FlightAware Approximate
05:06PM 48.0029 -20.0682 94° East  Level FlightAware Approximate
05:07PM 48.0032 -19.8479 88° East  Level FlightAware Approximate
05:08PM 48.0075 -19.6274 88° East  Level FlightAware Approximate
05:09PM 48.0113 -19.4069 88° East  Level FlightAware Approximate
05:10PM 48.0148 -19.1863 89° East  Level FlightAware Approximate
05:11PM 48.0178 -18.9657 89° East  Level FlightAware Approximate
05:12PM 48.0204 -18.7451 89° East  Level FlightAware Approximate
05:13PM 48.0226 -18.5245 89° East  Level FlightAware Approximate
05:14PM 48.0243 -18.3039 89° East  Level FlightAware Approximate
05:15PM 48.0257 -18.0832 89° East  Level FlightAware Approximate
05:16PM 48.0266 -17.8625 90° East  Level FlightAware Approximate
05:17PM 48.0270 -17.6419 90° East  Level FlightAware Approximate
05:18PM 48.0271 -17.4212 90° East  Level FlightAware Approximate
05:19PM 48.0267 -17.2005 90° East  Level FlightAware Approximate
05:20PM 48.0260 -16.9799 90° East  Level FlightAware Approximate
05:21PM 48.0247 -16.7592 90° East  Level FlightAware Approximate
05:22PM 48.0231 -16.5385 91° East  Level FlightAware Approximate
05:23PM 48.0211 -16.3179 91° East  Level FlightAware Approximate
05:24PM 48.0186 -16.0973 91° East  Level FlightAware Approximate
05:25PM 48.0157 -15.8767 91° East  Level FlightAware Approximate
05:26PM 48.0124 -15.6562 91° East  Level FlightAware Approximate
05:27PM 48.0086 -15.4356 91° East  Level FlightAware Approximate
05:28PM 48.0045 -15.2151 92° East  Level FlightAware Approximate
05:29PM 48.0001 -14.9947 88° East  Level FlightAware Approximate
05:30PM 48.0059 -14.7743 88° East  Level FlightAware Approximate
05:31PM 48.0112 -14.5538 88° East  Level FlightAware Approximate
05:32PM 48.0162 -14.3333 88° East  Level FlightAware Approximate
05:33PM 48.0207 -14.1128 88° East  Level FlightAware Approximate
05:34PM 48.0247 -13.8922 88° East  Level FlightAware Approximate
05:35PM 48.0284 -13.6716 88° East  Level FlightAware Approximate
05:36PM 48.0316 -13.4510 89° East  Level FlightAware Approximate
05:37PM 48.0344 -13.2303 89° East  Level FlightAware Approximate
05:38PM 48.0368 -13.0097 89° East  Level FlightAware Approximate
05:39PM 48.0388 -12.7890 89° East  Level FlightAware Approximate
05:40PM 48.0403 -12.5682 89° East  Level FlightAware Approximate
05:41PM 48.0414 -12.3475 89° East  Level FlightAware Approximate
05:42PM 48.0421 -12.1268 90° East  Level FlightAware Approximate
05:43PM 48.0424 -11.9060 90° East  Level FlightAware Approximate
05:44PM 48.0422 -11.6853 90° East  Level FlightAware Approximate
05:45PM 48.0417 -11.4646 90° East  Level FlightAware Approximate
05:46PM 48.0407 -11.2438 90° East  Level FlightAware Approximate
05:47PM 48.0392 -11.0231 90° East  Level FlightAware Approximate
05:48PM 48.0374 -10.8024 91° East  Level FlightAware Approximate
05:49PM 48.0351 -10.5817 91° East  Level FlightAware Approximate
05:50PM 48.0324 -10.3610 91° East  Level FlightAware Approximate
05:51PM 48.0293 -10.1404 91° East  Level FlightAware Approximate
05:52PM 48.0258 -9.9198 91° East  Level FlightAware Approximate
05:53PM 48.0219 -9.6992 91° East  Level FlightAware Approximate
05:54PM 48.0175 -9.4787 92° East  Level FlightAware Approximate
05:55PM 48.0127 -9.2582 92° East  Level FlightAware Approximate
05:56PM 48.0075 -9.0377 92° East  Level FlightAware Approximate
05:57PM 48.0018 -8.8173 92° East  Level FlightAware Approximate
05:57PM 47.9990 -9.3380 90° East 557 641 35,000  Level FlightAware
05:58PM 48.0004 -8.5968 90° East  Level FlightAware Approximate
05:59PM 48.0006 -8.3762 90° East  Level FlightAware Approximate
05:59PM 47.9910 -9.0610 92° East 556 640 35,000  Level FlightAware
05:59PM 47.9880 -8.9310 92° East 556 640 35,000  Level FlightAware
06:00PM 47.9850 -8.8000 92° East 556 640 35,000  Level FlightAware
06:01PM 47.9820 -8.6700 92° East 556 640 35,000 720 Level FlightAware
06:02PM 48.0600 -8.2790 73° East 562 647 36,600 240 Climbing FlightAware
06:02PM 48.0726 -8.1712 73° East 1 1 35,500 -1,680 Descending FlightAware UK
06:03PM 48.0808 -8.1027 80° East 476 548 35,500 3,900 Level FlightAware UK
06:03PM 48.0790 -8.1180 80° East 563 648 37,000  Climbing FlightAware
06:03PM 48.0917 -8.0110 80° East 478 550 35,500 -2,460 Descending FlightAware UK
06:03PM 48.0998 -7.9421 80° East 478 550 35,500 3,420 Level FlightAware UK
06:04PM 48.1010 -7.9360 80° East 561 646 37,000  Climbing FlightAware
06:04PM 48.1108 -7.8498 80° East 476 548 35,500 -2,700 Descending FlightAware UK
06:04PM 48.1189 -7.7811 80° East 476 548 35,500  Level FlightAware UK
06:04PM 48.1271 -7.7126 80° East 474 545 35,500  Level FlightAware UK
06:05PM 48.1352 -7.6441 80° East 474 545 35,500  Level FlightAware UK
06:05PM 48.1432 -7.5755 80° East 474 545 35,500  Level FlightAware UK
06:05PM 48.1512 -7.5068 80° East 474 545 35,500  Level FlightAware UK
06:06PM 48.1590 -7.4381 80° East 474 545 35,500  Level FlightAware UK
06:06PM 48.1669 -7.3693 80° East 474 545 35,500  Level FlightAware UK
06:06PM 48.1747 -7.3004 80° East 476 548 35,500  Level FlightAware UK
06:07PM 48.1826 -7.2315 80° East 476 548 35,500  Level FlightAware UK
06:07PM 48.1906 -7.1625 80° East 476 548 35,500  Level FlightAware UK
06:07PM 48.1985 -7.0934 80° East 476 548 35,500  Level FlightAware UK
06:07PM 48.2061 -7.0240 81° East 476 548 35,500  Level FlightAware UK
06:08PM 48.2138 -6.9547 81° East 476 548 35,500 3,180 Level FlightAware UK
06:08PM 48.2150 -6.9430 81° East 564 649 37,000  Climbing FlightAware
06:08PM 48.2214 -6.8853 81° East 476 548 35,500 -4,500 Descending FlightAware UK
06:08PM 48.2266 -6.8383 81° East 476 548 35,500  Level FlightAware UK
06:09PM 48.2341 -6.7687 81° East 476 548 35,500  Level FlightAware UK
06:09PM 48.2418 -6.6992 81° East 478 550 35,500  Level FlightAware UK
06:09PM 48.2494 -6.6296 81° East 480 552 35,500  Level FlightAware UK
06:09PM 48.2569 -6.5599 81° East 480 552 35,500  Level FlightAware UK
06:10PM 48.2643 -6.4904 81° East 478 550 35,500  Level FlightAware UK
06:10PM 48.2715 -6.4211 81° East 478 550 35,500  Level FlightAware UK
06:10PM 48.2787 -6.3519 81° East 480 552 35,500  Level FlightAware UK
06:11PM 48.2859 -6.2828 81° East 476 548 35,500  Level FlightAware UK
06:11PM 48.2931 -6.2140 81° East 474 545 35,500  Level FlightAware UK
06:11PM 48.3004 -6.1453 81° East 476 548 35,500  Level FlightAware UK
06:12PM 48.3074 -6.0766 81° East 476 548 35,500  Level FlightAware UK
06:12PM 48.3144 -6.0073 81° East 476 548 35,500  Level FlightAware UK
06:12PM 48.3214 -5.9389 81° East 476 548 35,500  Level FlightAware UK
06:12PM 48.3283 -5.8705 81° East 476 548 35,500  Level FlightAware UK
06:13PM 48.3350 -5.8021 82° East 474 545 35,500  Level FlightAware UK
06:13PM 48.3417 -5.7339 82° East 474 545 35,500  Level FlightAware UK
06:13PM 48.3487 -5.6658 81° East 474 545 35,500  Level FlightAware UK
06:14PM 48.3555 -5.5970 81° East 474 545 35,500  Level FlightAware UK
06:14PM 48.3621 -5.5296 82° East 476 548 35,500  Level FlightAware UK
06:14PM 48.3687 -5.4615 82° East 474 545 35,500  Level FlightAware UK
06:15PM 48.3755 -5.3935 81° East 476 548 35,500  Level FlightAware UK
06:15PM 48.3822 -5.3254 82° East 476 548 35,500  Level FlightAware UK
06:15PM 48.3886 -5.2570 82° East 476 548 35,500  Level FlightAware UK
06:15PM 48.3954 -5.1889 82° East 474 545 35,500  Level FlightAware UK
06:16PM 48.4018 -5.1205 82° East 474 545 35,500  Level FlightAware UK
06:16PM 48.4082 -5.0522 82° East 474 545 35,500  Level FlightAware UK
06:16PM 48.4145 -4.9832 82° East 474 545 35,500  Level FlightAware UK
06:17PM 48.4208 -4.9149 82° East 472 543 35,500  Level FlightAware UK
06:17PM 48.4269 -4.8466 82° East 472 543 35,500  Level FlightAware UK
06:17PM 48.4331 -4.7783 82° East 474 545 35,500  Level FlightAware UK
06:18PM 48.4394 -4.7099 82° East 474 545 35,500  Level FlightAware UK
06:18PM 48.4458 -4.6414 82° East 476 548 35,500  Level FlightAware UK
06:18PM 48.4522 -4.5729 82° East 476 548 35,500  Level FlightAware UK
06:18PM 48.4582 -4.5041 82° East 476 548 35,500  Level FlightAware UK
06:19PM 48.4642 -4.4352 82° East 476 548 35,500  Level FlightAware UK
06:19PM 48.4703 -4.3663 82° East 476 548 35,500  Level FlightAware UK
06:19PM 48.4763 -4.2965 83° East 476 548 35,500  Level FlightAware UK
06:20PM 48.4820 -4.2283 83° East 476 548 35,500  Level FlightAware UK
06:20PM 48.4880 -4.1586 83° East 476 548 35,500  Level FlightAware UK
06:20PM 48.4940 -4.0908 82° East 476 548 35,500  Level FlightAware UK
06:21PM 48.4997 -4.0219 83° East 476 548 35,500  Level FlightAware UK
06:21PM 48.5053 -3.9530 83° East 476 548 35,500  Level FlightAware UK
06:21PM 48.5110 -3.8835 83° East 476 548 35,500  Level FlightAware UK
06:21PM 48.5167 -3.8149 83° East 474 545 35,500  Level FlightAware UK
06:22PM 48.5223 -3.7462 83° East 474 545 35,500  Level FlightAware UK
06:22PM 48.5279 -3.6768 83° East 474 545 35,500  Level FlightAware UK
06:22PM 48.5336 -3.6082 83° East 474 545 35,500  Level FlightAware UK
06:23PM 48.5392 -3.5396 83° East 474 545 35,500  Level FlightAware UK
06:23PM 48.5447 -3.4708 83° East 476 548 35,500  Level FlightAware UK
06:23PM 48.5500 -3.4018 83° East 476 548 35,500  Level FlightAware UK
06:24PM 48.5554 -3.3330 83° East 476 548 35,500  Level FlightAware UK
06:24PM 48.5608 -3.2641 83° East 476 548 35,500  Level FlightAware UK
06:24PM 48.5661 -3.1944 83° East 478 550 35,500  Level FlightAware UK
06:24PM 48.5715 -3.1255 83° East 476 548 35,500  Level FlightAware UK
06:25PM 48.5769 -3.0564 83° East 474 545 35,500  Level FlightAware UK
06:25PM 48.5820 -2.9872 84° East 474 545 35,500  Level FlightAware UK
06:25PM 48.5872 -2.9175 84° East 474 545 35,500  Level FlightAware UK
06:26PM 48.5923 -2.8486 84° East 474 545 35,500  Level FlightAware UK
06:26PM 48.5973 -2.7796 84° East 472 543 35,500  Level FlightAware UK
06:26PM 48.6023 -2.7104 84° East 472 543 35,500 3,300 Level FlightAware UK
06:26PM 48.6040 -2.6840 84° East 555 639 37,000  Climbing FlightAware
06:27PM 48.6090 -2.6173 84° East 474 545 35,500 -2,760 Descending FlightAware UK
06:27PM 48.6139 -2.5488 84° East 474 545 35,500 3,600 Level FlightAware UK
06:27PM 48.6150 -2.5340 84° East 556 640 37,000  Climbing FlightAware
06:27PM 48.6204 -2.4564 84° East 476 548 35,500 -2,580 Descending FlightAware UK
06:28PM 48.6253 -2.3864 84° East 476 548 35,500 3,180 Level FlightAware UK
06:28PM 48.6270 -2.3680 84° East 560 644 37,000  Climbing FlightAware
06:28PM 48.6334 -2.2697 84° East 482 555 35,500 -2,400 Descending FlightAware UK
06:28PM 48.6381 -2.2000 84° East 484 557 35,500 4,680 Level FlightAware UK
06:28PM 48.6370 -2.2220 84° East 567 652 37,000  Climbing FlightAware
06:29PM 48.6430 -2.1283 84° East 484 557 35,500 -2,580 Descending FlightAware UK
06:29PM 48.6479 -2.0567 84° East 486 559 35,500 3,900 Level FlightAware UK
06:29PM 48.6480 -2.0460 84° East 568 654 37,000  Climbing FlightAware
06:29PM 48.6542 -1.9597 84° East 486 559 35,500 -2,460 Descending FlightAware UK
06:30PM 48.6588 -1.8901 84° East 486 559 35,500 3,420 Level FlightAware UK
06:30PM 48.6600 -1.8690 84° East 568 654 37,000  Climbing FlightAware
06:30PM 48.6649 -1.7954 84° East 486 559 35,500 -2,700 Descending FlightAware UK
06:30PM 48.6695 -1.7238 84° East 486 559 35,500 4,680 Level FlightAware UK
06:30PM 48.6690 -1.7330 84° East 568 654 37,000  Climbing FlightAware
06:31PM 48.6740 -1.6526 84° East 486 559 35,500 -3,960 Descending FlightAware UK
06:31PM 48.6755 -1.6282 84° East 486 559 35,500  Level FlightAware UK
06:31PM 48.6801 -1.5571 84° East 486 559 35,500 3,300 Level FlightAware UK
06:31PM 48.6810 -1.5430 84° East 567 652 37,000  Climbing FlightAware
06:32PM 48.6859 -1.4624 84° East 486 559 35,500 -2,760 Descending FlightAware UK
06:32PM 48.6902 -1.3913 85° East 484 557 35,500 3,600 Level FlightAware UK
06:32PM 48.6910 -1.3720 85° East 566 651 37,000  Climbing FlightAware
06:32PM 48.6957 -1.2968 85° East 486 559 35,500 -2,580 Descending FlightAware UK
06:33PM 48.6999 -1.2252 85° East 484 557 35,500 3,900 Level FlightAware UK
06:33PM 48.7010 -1.2110 85° East 566 651 37,000  Climbing FlightAware
06:33PM 48.7054 -1.1310 85° East 484 557 35,500 -2,460 Descending FlightAware UK
06:33PM 48.7098 -1.0603 85° East 484 557 35,500 3,420 Level FlightAware UK
06:33PM 48.7110 -1.0410 85° East 565 650 37,000  Climbing FlightAware
06:34PM 48.7153 -0.9651 85° East 484 557 35,500 -2,700 Descending FlightAware UK
06:34PM 48.7192 -0.8943 85° East 486 559 35,500 3,060 Level FlightAware UK
06:34PM 48.7210 -0.8590 85° East 566 651 37,000  Climbing FlightAware
06:34PM 48.7257 -0.7754 85° East 488 562 35,500 -2,400 Descending FlightAware UK
06:35PM 48.7296 -0.7045 85° East 488 562 35,500 4,500 Level FlightAware UK
06:35PM 48.7300 -0.7020 85° East 565 650 37,000  Climbing FlightAware
06:35PM 48.7335 -0.6336 85° East 486 559 35,500 -2,760 Descending FlightAware UK
06:35PM 48.7373 -0.5637 85° East 484 557 35,500 3,060 Level FlightAware UK
06:36PM 48.7390 -0.5290 85° East 563 648 37,000  Climbing FlightAware
06:36PM 48.7437 -0.4440 85° East 484 557 35,500 -2,460 Descending FlightAware UK
06:36PM 48.7473 -0.3742 86° East 484 557 35,500 4,260 Level FlightAware UK
06:36PM 48.7470 -0.3730 86° East 562 647 37,000  Climbing FlightAware
06:36PM 48.7509 -0.3035 86° East 486 559 35,500 -2,760 Descending FlightAware UK
06:37PM 48.7544 -0.2330 86° East 486 559 35,500 3,000 Level FlightAware UK
06:37PM 48.7570 -0.1930 86° East 563 648 37,000  Climbing FlightAware
06:37PM 48.7602 -0.1137 86° East 486 559 35,500 -2,520 Descending FlightAware UK
06:38PM 48.7638 -0.0431 86° East 486 559 35,500 4,080 Level FlightAware UK
06:38PM 48.7650 -0.0340 86° East 563 648 37,000  Climbing FlightAware
06:38PM 48.7684 0.0511 86° East 486 559 35,500 -2,400 Descending FlightAware UK
06:38PM 48.7717 0.1217 86° East 484 557 35,500 4,500 Level FlightAware UK
06:38PM 48.7720 0.1220 86° East 562 647 37,000  Climbing FlightAware
06:39PM 48.7751 0.1931 86° East 484 557 35,500 -2,700 Descending FlightAware UK
06:39PM 48.7784 0.2636 86° East 484 557 35,500 3,060 Level FlightAware UK
06:39PM 48.7800 0.2960 86° East 560 644 37,000  Climbing FlightAware
06:39PM 48.7837 0.3800 86° East 484 557 35,500 -2,460 Descending FlightAware UK
06:40PM 48.7866 0.4513 86° East 486 559 35,500 4,260 Level FlightAware UK
06:40PM 48.7850 0.4440 86° East 561 646 37,000  Climbing FlightAware
06:40PM 48.7838 0.5213 86° East 486 559 35,500 -2,760 Descending FlightAware UK
06:40PM 48.7805 0.5921 94° East 488 562 35,500 3,600 Level FlightAware UK
06:40PM 48.7790 0.6070 94° East 560 644 37,000  Climbing FlightAware
06:41PM 48.7716 0.6856 94° East 488 562 35,500 -2,580 Descending FlightAware UK
06:41PM 48.7619 0.7544 102° East 490 564 35,500 3,900 Level FlightAware UK
06:41PM 48.7610 0.7620 102° East 558 642 37,000  Climbing FlightAware
06:41PM 48.7496 0.8464 102° East 488 562 35,500 -2,460 Descending FlightAware UK
06:42PM 48.7409 0.9145 101° East 488 562 35,500 3,420 Level FlightAware UK
06:42PM 48.7390 0.9350 101° East 557 641 37,000  Climbing FlightAware
06:42PM 48.7293 1.0070 101° East 486 559 35,500 -2,700 Descending FlightAware UK
06:42PM 48.7206 1.0760 101° East 488 562 35,500 3,060 Level FlightAware UK
06:43PM 48.7170 1.1050 101° East 558 642 37,000  Climbing FlightAware
06:43PM 48.7055 1.1907 101° East 488 562 35,500 -2,460 Descending FlightAware UK
06:43PM 48.6964 1.2597 101° East 490 564 35,500 4,260 Level FlightAware UK
06:43PM 48.6970 1.2540 101° East 559 643 37,000  Climbing FlightAware
06:43PM 48.6870 1.3286 101° East 490 564 35,500 -2,760 Descending FlightAware UK
06:44PM 48.6778 1.3975 101° East 488 562 35,500 3,000 Level FlightAware UK
06:44PM 48.6740 1.4300 101° East 559 643 37,000  Climbing FlightAware
06:44PM 48.6626 1.5122 101° East 488 562 35,500 -2,460 Descending FlightAware UK
06:45PM 48.6534 1.5817 101° East 488 562 35,500 4,080 Level FlightAware UK
06:45PM 48.6530 1.5870 101° East 557 641 37,000  Climbing FlightAware
06:45PM 48.6441 1.6503 101° East 486 559 35,500 -2,760 Descending FlightAware UK
06:45PM 48.6350 1.7187 101° East 486 559 35,500 3,600 Level FlightAware UK
06:45PM 48.6330 1.7410 101° East 558 642 37,000  Climbing FlightAware
06:46PM 48.6255 1.8117 101° East 488 562 35,500 -2,580 Descending FlightAware UK
06:46PM 48.6191 1.8812 98° East 488 562 35,500 3,180 Level FlightAware UK
06:46PM 48.6170 1.9040 98° East 558 642 37,000  Climbing FlightAware
06:46PM 48.6070 1.9966 98° East 488 562 35,500 -2,400 Descending FlightAware UK
06:47PM 48.5991 2.0672 100° East 488 562 35,500 4,500 Level FlightAware UK
06:47PM 48.6000 2.0600 100° East 557 641 37,000  Climbing FlightAware
06:47PM 48.5914 2.1355 100° East 488 562 35,500 -2,700 Descending FlightAware UK
06:47PM 48.5835 2.2037 100° East 488 562 35,500 3,720 Level FlightAware UK
06:47PM 48.5830 2.2060 100° East 558 642 37,000 1,740 Climbing FlightAware
06:48PM 48.5630 2.3820 100° East 557 641 37,000  Level FlightAware
06:49PM 48.5509 2.4836 100° East 37,000  Level FlightAware ADS-B
06:50PM 48.5250 2.7030 100° East 559 643 37,000  Level FlightAware
06:50PM 48.5080 2.8480 100° East 558 642 37,000  Level FlightAware
06:51PM 48.4890 3.0020 100° East 557 641 37,000  Level FlightAware
06:52PM 48.4660 3.1940 100° East 560 644 37,000  Level FlightAware
06:52PM 48.4470 3.3480 100° East 561 646 37,000  Level FlightAware
06:53PM 48.4260 3.5140 101° East 560 644 37,000  Level FlightAware
06:54PM 48.4080 3.6500 101° East 559 643 37,000  Level FlightAware
06:54PM 48.3870 3.8210 100° East 559 643 37,000  Level FlightAware
06:55PM 48.3640 3.9960 101° East 560 644 37,000  Level FlightAware
06:56PM 48.3440 4.1500 101° East 561 646 37,000  Level FlightAware
06:57PM 48.3220 4.3150 101° East 561 646 37,000  Level FlightAware
06:57PM 48.3010 4.4700 101° East 562 647 37,000  Level FlightAware
06:58PM 48.2770 4.6460 102° East 560 644 37,000  Level FlightAware
06:59PM 48.2560 4.7970 102° East 563 648 37,000  Level FlightAware
06:59PM 48.2360 4.9430 102° East 565 650 37,000  Level FlightAware
07:00PM 48.2110 5.1190 102° East 565 650 37,000  Level FlightAware
07:01PM 48.1920 5.2550 102° East 563 648 37,000  Level FlightAware
07:01PM 48.1670 5.4310 102° East 563 648 37,000  Level FlightAware
07:02PM 48.1450 5.5810 102° East 565 650 37,000  Level FlightAware
07:03PM 48.1230 5.7300 102° East 568 654 37,000  Level FlightAware
07:03PM 48.0980 5.9010 102° East 571 657 37,000  Level FlightAware
07:04PM 48.0740 6.0590 103° East 573 659 37,000  Level FlightAware
07:05PM 48.0490 6.2260 103° East 573 659 37,000  Level FlightAware
07:06PM 48.0260 6.3780 103° East 574 661 37,000  Level FlightAware
07:06PM 48.0000 6.5450 103° East 572 658 37,000  Level FlightAware
07:07PM 47.9750 6.7020 103° East 571 657 37,000  Level FlightAware
07:08PM 47.9530 6.8460 103° East 571 657 37,000  Level FlightAware
07:08PM 47.9230 7.0310 104° East 570 656 37,000  Level FlightAware
07:09PM 47.8990 7.1840 103° East 568 654 37,000  Level FlightAware
07:10PM 47.8750 7.3340 103° East 554 638 37,000  Level FlightAware
07:10PM 47.8470 7.5030 104° East 561 646 37,000  Level FlightAware
07:11PM 47.8240 7.6510 103° East 558 642 37,000  Level FlightAware
07:12PM 47.7990 7.8200 102° East 558 642 37,000  Level FlightAware
07:13PM 47.7760 7.9670 103° East 548 631 37,000  Level FlightAware
07:13PM 47.7540 8.1090 103° East 543 625 37,000  Level FlightAware
07:14PM 47.7270 8.2790 103° East 542 624 37,000  Level FlightAware
07:15PM 47.7060 8.4090 103° East 544 626 37,000  Level FlightAware
07:15PM 47.6810 8.5650 103° East 549 632 37,000  Level FlightAware
07:16PM 47.6540 8.7320 103° East 551 634 37,000  Level FlightAware
07:17PM 47.6290 8.8820 104° East 559 643 37,000  Level FlightAware
07:17PM 47.6050 9.0300 103° East 562 647 37,000  Level FlightAware
07:18PM 47.5740 9.2160 104° East 560 644 37,000  Level FlightAware
07:19PM 47.5480 9.3660 104° East 557 641 37,000  Level FlightAware
07:20PM 47.5200 9.5310 104° East 560 644 37,000  Level FlightAware
07:20PM 47.4940 9.6810 104° East 559 643 37,000  Level FlightAware
07:21PM 47.4690 9.8300 104° East 557 641 37,000  Level FlightAware
07:22PM 47.4400 9.9940 105° East 552 635 37,000  Level FlightAware
07:22PM 47.4180 10.1210 104° East 538 619 37,000  Level FlightAware
07:23PM 47.3870 10.2920 105° East 535 616 37,000  Level FlightAware
07:24PM 47.3570 10.4380 107° East 538 619 37,000  Level FlightAware
07:25PM 47.3160 10.5980 111° Southeast 541 623 37,000  Level FlightAware
07:25PM 47.2850 10.7190 111° Southeast 543 625 37,000  Level FlightAware
07:26PM 47.2320 10.9260 111° Southeast 545 627 37,000  Level FlightAware
07:28PM 47.1500 11.2610 110° East 539 620 37,000  Level FlightAware
07:28PM 47.1200 11.4030 107° East 542 624 37,000  Level FlightAware
07:29PM 47.0880 11.5450 108° East 540 621 37,000  Level FlightAware
07:30PM 47.0530 11.7010 108° East 544 626 37,000  Level FlightAware
07:31PM 47.0210 11.8430 108° East 544 626 37,000  Level FlightAware
07:31PM 46.9850 11.9990 109° East 548 631 37,000  Level FlightAware
07:32PM 46.9480 12.1600 109° East 544 626 37,000  Level FlightAware
07:33PM 46.9050 12.3460 109° East 547 629 37,000  Level FlightAware
07:34PM 46.8760 12.4680 109° East 546 628 37,000  Level FlightAware
07:34PM 46.8420 12.6140 109° East 544 626 37,000  Level FlightAware
07:35PM 46.8050 12.7680 109° East 547 629 37,000  Level FlightAware
07:36PM 46.7730 12.9060 109° East 550 633 37,000  Level FlightAware
07:36PM 46.7340 13.0670 109° East 551 634 37,000  Level FlightAware
07:37PM 46.6910 13.2470 109° East 549 632 37,000  Level FlightAware
07:38PM 46.6490 13.3940 113° Southeast 551 634 37,000  Level FlightAware
07:39PM 46.5980 13.5430 116° Southeast 554 638 37,000  Level FlightAware
07:39PM 46.5550 13.6740 115° Southeast 554 638 37,000  Level FlightAware
07:40PM 46.5090 13.8090 116° Southeast 555 639 37,000  Level FlightAware
07:41PM 46.4590 13.9580 116° Southeast 555 639 37,000  Level FlightAware
07:41PM 46.4150 14.0860 116° Southeast 555 639 37,000  Level FlightAware
07:42PM 46.3560 14.2650 115° Southeast 552 635 37,000  Level FlightAware
07:43PM 46.3030 14.4100 118° Southeast 556 640 37,000  Level FlightAware
07:44PM 46.2500 14.5620 117° Southeast 555 639 37,000  Level FlightAware
07:45PM 46.2010 14.7020 117° Southeast 556 640 37,000  Level FlightAware
07:45PM 46.1500 14.8470 117° Southeast 558 642 37,000  Level FlightAware
07:46PM 46.1030 14.9860 116° Southeast 558 642 37,000  Level FlightAware
07:47PM 46.0640 15.0990 116° Southeast 558 642 37,000  Level FlightAware
07:47PM 46.0050 15.2560 118° Southeast 549 632 37,000  Level FlightAware
07:48PM 45.9420 15.4320 117° Southeast 551 634 37,000  Level FlightAware
07:49PM 45.8900 15.5760 117° Southeast 555 639 37,000  Level FlightAware
07:50PM 45.8430 15.7080 117° Southeast 549 632 37,000  Level FlightAware
07:50PM 45.7930 15.8490 117° Southeast 551 634 37,000  Level FlightAware
07:51PM 45.7440 15.9870 117° Southeast 551 634 37,000  Level FlightAware
07:52PM 45.6970 16.1160 118° Southeast 549 632 37,000  Level FlightAware
07:52PM 45.6570 16.2340 116° Southeast 549 632 37,000  Level FlightAware
07:53PM 45.6220 16.3360 116° Southeast 549 632 37,000  Level FlightAware
07:54PM 45.5520 16.5150 119° Southeast 558 642 37,000  Level FlightAware
07:55PM 45.5000 16.6570 118° Southeast 560 644 37,000  Level FlightAware
07:55PM 45.4600 16.7650 118° Southeast 561 646 37,000  Level FlightAware
07:56PM 45.3880 16.9600 118° Southeast 556 640 37,000  Level FlightAware
07:57PM 45.3450 17.0750 118° Southeast 554 638 37,000  Level FlightAware
07:58PM 45.2860 17.2340 118° Southeast 553 636 37,000  Level FlightAware
07:58PM 45.2370 17.3640 118° Southeast 553 636 37,000  Level FlightAware
07:59PM 45.1960 17.4730 118° Southeast 553 636 37,000  Level FlightAware
08:00PM 45.1550 17.5820 118° Southeast 553 636 37,000  Level FlightAware
08:00PM 45.0910 17.7470 119° Southeast 37,000  Level FlightAware
08:01PM 45.0140 17.9470 119° Southeast 558 642 37,000  Level FlightAware
08:02PM 44.9500 18.1130 119° Southeast 558 642 37,000  Level FlightAware
08:03PM 44.9030 18.2340 119° Southeast 561 646 37,000  Level FlightAware
08:04PM 44.8340 18.4100 119° Southeast 559 643 37,000  Level FlightAware
08:04PM 44.7900 18.5630 112° Southeast 553 636 37,000  Level FlightAware
08:05PM 44.7740 18.6430 106° East 553 636 37,000  Level FlightAware
08:06PM 44.7390 18.8060 107° East 551 634 37,000  Level FlightAware
08:06PM 44.7000 18.9880 107° East 552 635 37,000  Level FlightAware
08:07PM 44.6700 19.1280 107° East 550 633 37,000  Level FlightAware
08:08PM 44.6370 19.2810 107° East 550 633 37,000  Level FlightAware
08:08PM 44.6070 19.4190 107° East 550 633 37,000  Level FlightAware
08:09PM 44.5770 19.5540 107° East 550 633 37,000  Level FlightAware
08:10PM 44.5470 19.6890 107° East 551 634 37,000  Level FlightAware
08:10PM 44.5240 19.7930 107° East 552 635 37,000  Level FlightAware
08:11PM 44.4860 19.9640 107° East 554 638 37,000  Level FlightAware
08:12PM 44.4500 20.1220 108° East 554 638 37,000  Level FlightAware
08:13PM 44.4200 20.2550 107° East 557 641 37,000  Level FlightAware
08:13PM 44.3850 20.4090 108° East 555 639 37,000  Level FlightAware
08:14PM 44.3540 20.5430 108° East 555 639 37,000  Level FlightAware
08:15PM 44.3190 20.6930 108° East 555 639 37,000  Level FlightAware
08:15PM 44.2860 20.8380 108° East 554 638 37,000  Level FlightAware
08:16PM 44.2540 20.9740 108° East 553 636 37,000  Level FlightAware
08:17PM 44.2190 21.1200 108° East 553 636 37,000  Level FlightAware
08:17PM 44.1870 21.2560 108° East 552 635 37,000  Level FlightAware
08:18PM 44.1490 21.4120 109° East 554 638 37,000  Level FlightAware
08:19PM 44.1170 21.5460 108° East 553 636 37,000  Level FlightAware
08:20PM 44.0810 21.6930 109° East 551 634 37,000  Level FlightAware
08:20PM 44.0490 21.8280 108° East 551 634 37,000  Level FlightAware
08:21PM 44.0180 21.9530 109° East 550 633 37,000  Level FlightAware
08:22PM 43.9850 22.0870 109° East 547 629 37,000  Level FlightAware
08:22PM 43.9510 22.2250 109° East 544 626 37,000  Level FlightAware
08:23PM 43.9210 22.3430 109° East 541 623 37,000  Level FlightAware
08:24PM 43.8810 22.5020 109° East 544 626 37,000  Level FlightAware
08:24PM 43.8460 22.6430 109° East 545 627 37,000  Level FlightAware
08:25PM 43.8110 22.7780 110° East 545 627 37,000  Level FlightAware
08:26PM 43.7750 22.9190 109° East 542 624 37,000  Level FlightAware
08:27PM 43.7300 23.0930 110° East 540 621 37,000  Level FlightAware
08:27PM 43.7010 23.2080 109° East 541 623 37,000  Level FlightAware
08:28PM 43.6590 23.3660 110° East 540 621 37,000  Level FlightAware
08:29PM 43.6240 23.5000 110° East 540 621 37,000  Level FlightAware
08:29PM 43.5940 23.6150 110° East 545 627 37,000  Level FlightAware
08:30PM 43.5640 23.7300 110° East 549 632 37,000  Level FlightAware
08:31PM 43.5350 23.8390 110° East 550 633 37,000  Level FlightAware
08:31PM 43.5010 23.9660 110° East 553 636 37,000  Level FlightAware
08:32PM 43.4620 24.1080 111° Southeast 553 636 37,000  Level FlightAware
08:33PM 43.4290 24.2330 110° East 552 635 37,000  Level FlightAware
08:33PM 43.3910 24.3700 111° Southeast 549 632 37,000  Level FlightAware
08:34PM 43.3500 24.5200 111° Southeast 547 629 37,000  Level FlightAware
08:35PM 43.3160 24.6460 110° East 544 626 37,000  Level FlightAware
08:35PM 43.2750 24.7940 111° Southeast 544 626 37,000  Level FlightAware
08:36PM 43.2440 24.9050 111° Southeast 544 626 37,000  Level FlightAware
08:37PM 43.2030 25.0500 111° Southeast 541 623 37,000  Level FlightAware
08:38PM 43.1640 25.1880 111° Southeast 546 628 37,000  Level FlightAware
08:39PM 43.1120 25.3750 111° Southeast 545 627 37,000  Level FlightAware
08:39PM 43.0680 25.5290 111° Southeast 543 625 37,000  Level FlightAware
08:40PM 43.0320 25.6550 111° Southeast 543 625 37,000  Level FlightAware
08:41PM 42.9960 25.7800 111° Southeast 541 623 37,000  Level FlightAware
08:41PM 42.9590 25.9050 112° Southeast 539 620 37,000  Level FlightAware
08:42PM 42.9170 26.0520 111° Southeast 540 621 37,000  Level FlightAware
08:43PM 42.8790 26.1830 112° Southeast 541 623 37,000  Level FlightAware
08:43PM 42.8430 26.3040 112° Southeast 539 620 37,000  Level FlightAware
08:44PM 42.8060 26.4290 112° Southeast 536 617 37,000  Level FlightAware
08:45PM 42.7690 26.5540 112° Southeast 537 618 37,000  Level FlightAware
08:45PM 42.7320 26.6780 112° Southeast 538 619 37,000  Level FlightAware
08:46PM 42.6740 26.8710 112° Southeast 540 621 37,000  Level FlightAware
08:47PM 42.6330 27.0060 112° Southeast 543 625 37,000  Level FlightAware
08:48PM 42.5900 27.1470 112° Southeast 546 628 37,000  Level FlightAware
08:48PM 42.5660 27.2300 111° Southeast 545 627 37,000  Level FlightAware
08:50PM 42.4600 27.5740 113° Southeast 546 628 37,000  Level FlightAware
08:51PM 42.4170 27.7140 113° Southeast 546 628 37,000  Level FlightAware
08:52PM 42.3850 27.8220 112° Southeast 546 628 37,000  Level FlightAware
08:52PM 42.3280 27.9970 114° Southeast 550 633 37,000  Level FlightAware
08:53PM 42.2910 28.1120 113° Southeast 550 633 37,000  Level FlightAware
08:54PM 42.2510 28.2400 113° Southeast 549 632 37,000  Level FlightAware
08:55PM 42.1930 28.4210 113° Southeast 547 629 37,000  Level FlightAware
08:55PM 42.1450 28.5720 113° Southeast 544 626 37,000  Level FlightAware
08:56PM 42.1130 28.6700 114° Southeast 546 628 37,000  Level FlightAware
08:57PM 42.0650 28.8020 116° Southeast 549 632 37,000  Level FlightAware
08:57PM 41.9960 28.9490 122° Southeast 552 635 37,000  Level FlightAware
08:58PM 41.9480 29.0520 122° Southeast 550 633 37,000  Level FlightAware
08:59PM 41.8900 29.1740 123° Southeast 553 636 37,000  Level FlightAware
09:00PM 41.8240 29.3150 122° Southeast 555 639 37,000  Level FlightAware
09:00PM 41.7660 29.4350 123° Southeast 555 639 37,000  Level FlightAware
09:01PM 41.7050 29.5620 123° Southeast 553 636 37,000  Level FlightAware
09:02PM 41.6480 29.6820 122° Southeast 553 636 37,000  Level FlightAware
09:02PM 41.5870 29.8080 123° Southeast 553 636 37,000  Level FlightAware
09:03PM 41.5290 29.9270 123° Southeast 552 635 37,000  Level FlightAware
09:04PM 41.4740 30.0400 123° Southeast 551 634 37,000  Level FlightAware
09:04PM 41.4110 30.1690 123° Southeast 555 639 37,000  Level FlightAware
09:05PM 41.3550 30.2840 123° Southeast 555 639 37,000  Level FlightAware
09:06PM 41.2980 30.4010 123° Southeast 555 639 37,000  Level FlightAware
09:07PM 41.2500 30.4980 123° Southeast 555 639 37,000  Level FlightAware
09:08PM 41.0780 30.8420 123° Southeast 555 639 37,000  Level FlightAware
09:09PM 41.0250 30.9480 124° Southeast 554 638 37,000  Level FlightAware
09:10PM 40.9590 31.0800 123° Southeast 557 641 37,000  Level FlightAware
09:10PM 40.9050 31.1940 122° Southeast 558 642 37,000  Level FlightAware
09:13PM 40.7613 31.5154 120° Southeast  Level Estimated
09:14PM 40.6898 31.6743 121° Southeast  Level Estimated
09:15PM 40.6180 31.8328 121° Southeast  Level Estimated
09:16PM 40.5460 31.9909 121° Southeast  Level Estimated
09:17PM 40.4738 32.1488 121° Southeast  Level Estimated
09:18PM 40.4014 32.3063 121° Southeast  Level Estimated
09:19PM 40.3287 32.4634 121° Southeast  Level Estimated
09:20PM 40.2559 32.6203 121° Southeast  Level Estimated
09:21PM 40.1828 32.7767 121° Southeast  Level Estimated
09:22PM 40.1096 32.9329 121° Southeast  Level Estimated
09:23PM 40.0361 33.0887 122° Southeast  Level Estimated
09:24PM 39.9624 33.2441 122° Southeast  Level Estimated
09:24PM 40.2750 33.7670 122° Southeast 545 627 37,000  Level FlightAware
09:26PM 40.1940 34.0830 108° East 546 628 37,000  Level FlightAware
09:26PM 40.1680 34.1790 109° East 545 627 37,000  Level FlightAware
09:27PM 40.1270 34.3360 109° East 542 624 37,000  Level FlightAware
09:28PM 40.0930 34.4660 109° East 550 633 37,000  Level FlightAware
09:28PM 40.0600 34.5910 109° East 553 636 37,000  Level FlightAware
09:29PM 40.0200 34.7380 110° East 553 636 37,000  Level FlightAware
09:30PM 39.9770 34.9020 109° East 553 636 37,000  Level FlightAware
09:31PM 39.9430 35.0320 109° East 550 633 37,000  Level FlightAware
09:31PM 39.9160 35.1400 108° East 550 633 37,000  Level FlightAware
09:32PM 39.8820 35.2740 108° East 550 633 37,000  Level FlightAware
09:33PM 39.8560 35.3810 108° East 550 633 37,000  Level FlightAware
09:33PM 39.8290 35.4880 108° East 550 633 37,000  Level FlightAware
09:34PM 39.8020 35.5950 108° East 550 633 37,000  Level FlightAware
09:35PM 39.7750 35.7020 108° East 550 633 37,000  Level FlightAware
09:36PM 39.7420 35.8360 108° East 550 633 37,000  Level FlightAware
09:36PM 39.7150 35.9430 108° East 550 633 37,000  Level FlightAware
09:37PM 39.6890 36.0500 107° East 550 633 37,000  Level FlightAware
09:38PM 39.6620 36.1570 108° East 550 633 37,000  Level FlightAware
09:38PM 39.6350 36.2640 108° East 550 633 37,000  Level FlightAware
09:39PM 39.6020 36.3970 108° East 550 633 37,000  Level FlightAware
09:40PM 39.5750 36.5040 108° East 550 633 37,000  Level FlightAware
09:42PM 39.4347 36.7490 127° Southeast  Level Estimated
09:43PM 39.3511 36.8941 127° Southeast  Level Estimated
09:44PM 39.2673 37.0388 127° Southeast  Level Estimated
09:45PM 39.1833 37.1832 127° Southeast  Level Estimated
09:46PM 39.0992 37.3273 127° Southeast  Level Estimated
09:47PM 39.0149 37.4710 127° Southeast  Level Estimated
09:48PM 38.9304 37.6143 127° Southeast  Level Estimated
09:49PM 38.8457 37.7573 127° Southeast  Level Estimated
09:50PM 38.7609 37.9000 127° Southeast  Level Estimated
09:51PM 38.6759 38.0423 127° Southeast  Level Estimated
09:52PM 38.5907 38.1843 127° Southeast  Level Estimated
09:53PM 38.5053 38.3260 128° Southeast  Level Estimated
09:54PM 38.4198 38.4673 128° Southeast  Level Estimated
09:55PM 38.3341 38.6083 128° Southeast  Level Estimated
09:56PM 38.2482 38.7490 128° Southeast  Level Estimated
09:57PM 38.1622 38.8893 128° Southeast  Level Estimated
09:58PM 38.0760 39.0293 128° Southeast  Level Estimated
09:59PM 37.9896 39.1689 128° Southeast  Level Estimated
10:00PM 37.9031 39.3083 128° Southeast  Level Estimated
10:01PM 37.8164 39.4473 128° Southeast  Level Estimated
10:02PM 37.7296 39.5859 128° Southeast  Level Estimated
10:03PM 37.6425 39.7243 128° Southeast  Level Estimated
10:04PM 37.5554 39.8623 129° Southeast  Level Estimated
10:04PM 38.1270 41.1810 129° Southeast 541 623 37,000  Level FlightAware
10:05PM 38.0860 41.3150 111° Southeast 539 620 37,000  Level FlightAware
10:05PM 38.0530 41.4210 112° Southeast 540 621 37,000  Level FlightAware
10:06PM 38.0180 41.5340 111° Southeast 541 623 37,000  Level FlightAware
10:07PM 37.9730 41.6790 111° Southeast 543 625 37,000  Level FlightAware
10:08PM 37.9370 41.7990 111° Southeast 544 626 37,000  Level FlightAware
10:08PM 37.9120 41.9240 104° East 542 624 37,000  Level FlightAware
10:09PM 37.9010 42.0230 98° East 541 623 37,000  Level FlightAware
10:09PM 37.8940 42.1270 95° East 541 623 37,000 360 Level FlightAware
10:10PM 37.8760 42.3470 96° East 548 631 37,600 960 Climbing FlightAware
10:11PM 37.8520 42.4680 104° East 537 618 38,700 960 Climbing FlightAware
10:12PM 37.8110 42.6000 111° Southeast 516 594 39,000 180 Climbing FlightAware
10:13PM 37.7650 42.7060 119° Southeast 517 595 39,000  Level FlightAware
10:13PM 37.7090 42.8040 126° Southeast 514 592 39,000  Level FlightAware
10:14PM 37.6380 42.9010 133° Southeast 516 594 39,000  Level FlightAware
10:15PM 37.5660 42.9810 139° Southeast 514 592 39,000  Level FlightAware
10:15PM 37.4850 43.0700 139° Southeast 513 590 39,000  Level FlightAware
10:16PM 37.4120 43.1490 139° Southeast 512 589 39,000  Level FlightAware
10:17PM 37.3360 43.2170 145° Southeast 507 583 39,000  Level FlightAware
10:17PM 37.2440 43.2770 153° Southeast 505 581 39,000  Level FlightAware
10:18PM 37.1570 43.3260 156° South 507 583 39,000  Level FlightAware
10:19PM 37.0600 43.3800 156° South 507 583 39,000  Level FlightAware
10:20PM 36.9760 43.4280 155° Southeast 505 581 39,000  Level FlightAware
10:20PM 36.8890 43.4760 156° South 504 580 39,000  Level FlightAware
10:21PM 36.7930 43.5300 156° South 503 579 39,000  Level FlightAware
10:22PM 36.7120 43.5750 156° South 501 577 39,000  Level FlightAware
10:22PM 36.6130 43.6260 158° South 500 575 39,000  Level FlightAware
10:23PM 36.5500 43.6590 157° South 500 575 39,000  Level FlightAware
10:23PM 36.4840 43.6930 157° South 502 578 39,000  Level FlightAware
10:24PM 36.3990 43.7370 157° South 502 578 39,000  Level FlightAware
10:25PM 36.3130 43.7820 157° South 505 581 39,000  Level FlightAware
10:25PM 36.2170 43.8310 158° South 510 587 39,000  Level FlightAware
10:26PM 36.1280 43.8780 157° South 511 588 39,000  Level FlightAware
10:27PM 36.0440 43.9220 157° South 510 587 39,000  Level FlightAware
10:28PM 35.9450 43.9750 157° South 509 586 39,000  Level FlightAware
10:28PM 35.8570 44.0200 157° South 508 585 39,000  Level FlightAware
10:29PM 35.7580 44.0720 157° South 509 586 39,000  Level FlightAware
10:30PM 35.6750 44.1150 157° South 510 587 39,000  Level FlightAware
10:30PM 35.5880 44.1600 157° South 511 588 39,000  Level FlightAware
10:31PM 35.4890 44.2110 157° South 511 588 39,000  Level FlightAware
10:32PM 35.4010 44.2580 156° South 511 588 39,000  Level FlightAware
10:32PM 35.3110 44.3230 149° Southeast 511 588 39,000  Level FlightAware
10:33PM 35.2290 44.3810 150° Southeast 510 587 39,000  Level FlightAware
10:34PM 35.1360 44.4460 150° Southeast 514 592 39,000  Level FlightAware
10:35PM 35.0520 44.5040 151° Southeast 519 597 39,000  Level FlightAware
10:35PM 34.9690 44.5620 150° Southeast 521 600 39,000  Level FlightAware
10:36PM 34.8770 44.6260 150° Southeast 523 602 39,000  Level FlightAware
10:37PM 34.7920 44.6850 150° Southeast 522 601 39,000  Level FlightAware
10:37PM 34.7060 44.7440 151° Southeast 524 603 39,000  Level FlightAware
10:38PM 34.6120 44.8090 150° Southeast 528 608 39,000  Level FlightAware
10:39PM 34.5260 44.8680 151° Southeast 528 608 39,000  Level FlightAware
10:39PM 34.4400 44.9260 151° Southeast 528 608 39,000  Level FlightAware
10:40PM 34.3430 44.9930 150° Southeast 527 606 39,000  Level FlightAware
10:41PM 34.2500 45.0560 151° Southeast 527 606 39,000  Level FlightAware
10:42PM 34.1630 45.1150 151° Southeast 526 605 39,000  Level FlightAware
10:42PM 34.0790 45.1720 151° Southeast 522 601 39,000  Level FlightAware
10:43PM 33.9880 45.2340 151° Southeast 521 600 39,000  Level FlightAware
10:44PM 33.9120 45.2860 150° Southeast 522 601 39,000  Level FlightAware
10:44PM 33.8040 45.3580 151° Southeast 524 603 39,000  Level FlightAware
10:45PM 33.7240 45.4120 151° Southeast 523 602 39,000  Level FlightAware
10:46PM 33.6360 45.4710 151° Southeast 521 600 39,000  Level FlightAware
10:46PM 33.5450 45.5310 151° Southeast 517 595 39,000  Level FlightAware
10:47PM 33.4650 45.5850 151° Southeast 516 594 39,000  Level FlightAware
10:48PM 33.3830 45.6390 151° Southeast 516 594 39,000  Level FlightAware
10:49PM 33.2810 45.7080 151° Southeast 517 595 39,000  Level FlightAware
10:50PM 33.1500 45.7940 151° Southeast 520 598 39,000  Level FlightAware
10:51PM 33.0400 45.8690 150° Southeast 521 600 39,000  Level FlightAware
10:51PM 32.9860 45.9050 151° Southeast 521 600 39,000  Level FlightAware
10:52PM 32.9150 45.9540 150° Southeast 521 600 39,000  Level FlightAware
10:52PM 32.8440 46.0030 150° Southeast 521 600 39,000  Level FlightAware
10:53PM 32.7740 46.0520 150° Southeast 521 600 39,000  Level FlightAware
10:54PM 32.7030 46.1010 150° Southeast 521 600 39,000  Level FlightAware
10:54PM 32.6320 46.1490 150° Southeast 521 600 39,000  Level FlightAware
10:55PM 32.5430 46.2100 150° Southeast 521 600 39,000  Level FlightAware
10:56PM 32.4720 46.2590 150° Southeast 521 600 39,000  Level FlightAware
10:57PM 32.4010 46.3070 150° Southeast 521 600 39,000  Level FlightAware
10:57PM 32.3300 46.3560 150° Southeast 521 600 39,000  Level FlightAware
10:58PM 32.2590 46.4040 150° Southeast 521 600 39,000  Level FlightAware
10:59PM 32.1700 46.4650 150° Southeast 521 600 39,000  Level FlightAware
10:59PM 32.0990 46.5130 150° Southeast 521 600 39,000  Level FlightAware
11:02PM 31.9131 46.7812 129° Southeast  Level Estimated
11:03PM 31.8252 46.9075 129° Southeast  Level Estimated
11:04PM 31.7371 47.0335 129° Southeast  Level Estimated
11:05PM 31.6489 47.1593 129° Southeast  Level Estimated
11:05PM 31.1760 47.1450 130° Southeast 532 612 39,000  Level FlightAware
11:06PM 31.5605 47.2848 130° Southeast  Level Estimated
11:06PM 31.1210 47.2050 137° Southeast 532 612 39,000  Level FlightAware
11:07PM 31.0070 47.3250 138° Southeast 538 619 39,000  Level FlightAware
11:08PM 30.9450 47.3930 137° Southeast 538 619 39,000  Level FlightAware
11:08PM 30.8570 47.4820 139° Southeast 539 620 39,000  Level FlightAware
11:10PM 30.7140 47.6310 138° Southeast 542 624 39,000  Level FlightAware
11:10PM 30.6520 47.6960 138° Southeast 542 624 39,000  Level FlightAware
11:11PM 30.5550 47.7960 138° Southeast 542 624 39,000  Level FlightAware
11:12PM 30.4530 47.9030 138° Southeast 541 623 39,000  Level FlightAware
11:13PM 30.3460 48.0130 138° Southeast 539 620 39,000  Level FlightAware
11:14PM 30.2540 48.1090 138° Southeast 541 623 39,000  Level FlightAware
11:15PM 30.1790 48.1860 138° Southeast 541 623 39,000  Level FlightAware
11:15PM 30.1150 48.2520 138° Southeast 541 623 39,000  Level FlightAware
11:16PM 30.0050 48.3630 139° Southeast 536 617 39,000  Level FlightAware
11:17PM 29.9300 48.4400 138° Southeast 536 617 39,000  Level FlightAware
11:17PM 29.8700 48.4980 140° Southeast 535 616 39,000  Level FlightAware
11:18PM 29.7770 48.5710 146° Southeast 534 615 39,000  Level FlightAware
11:19PM 29.6760 48.6480 146° Southeast 535 616 39,000  Level FlightAware
11:19PM 29.6070 48.7010 146° Southeast 533 613 39,000  Level FlightAware
11:21PM 29.4600 48.8140 146° Southeast 532 612 39,000  Level FlightAware
11:21PM 29.3610 48.8890 147° Southeast 530 610 39,000  Level FlightAware
11:22PM 29.2880 48.9440 147° Southeast 530 610 39,000  Level FlightAware
11:23PM 29.1740 49.0310 146° Southeast 530 610 39,000  Level FlightAware
11:24PM 29.0880 49.0980 146° Southeast 530 610 39,000  Level FlightAware
11:24PM 29.0070 49.1560 148° Southeast 533 613 39,000  Level FlightAware
11:25PM 28.9150 49.2270 146° Southeast 533 613 39,000  Level FlightAware
11:26PM 28.8100 49.3040 147° Southeast 534 615 39,000  Level FlightAware
11:26PM 28.7300 49.3640 147° Southeast 534 615 39,000  Level FlightAware
11:27PM 28.6350 49.4360 146° Southeast 534 615 39,000  Level FlightAware
11:28PM 28.5630 49.4950 144° Southeast 535 616 39,000  Level FlightAware
11:29PM 28.4790 49.5870 136° Southeast 538 619 39,000  Level FlightAware
11:29PM 28.4000 49.6670 138° Southeast 537 618 39,000  Level FlightAware
11:30PM 28.3290 49.7340 140° Southeast 533 613 39,000  Level FlightAware
11:31PM 28.2400 49.8030 146° Southeast 531 611 39,000  Level FlightAware
11:31PM 28.1760 49.8530 145° Southeast 531 611 39,000  Level FlightAware
11:32PM 28.0750 49.9330 145° Southeast 531 611 39,000  Level FlightAware
11:33PM 28.0070 49.9870 145° Southeast 531 611 39,000  Level FlightAware
11:33PM 27.9380 50.0410 145° Southeast 531 611 39,000  Level FlightAware
11:34PM 27.8530 50.1090 145° Southeast 531 611 39,000  Level FlightAware
11:35PM 27.7840 50.1630 145° Southeast 531 611 39,000  Level FlightAware
11:36PM 27.7160 50.2170 145° Southeast 531 611 39,000  Level FlightAware
11:36PM 27.6470 50.2720 145° Southeast 531 611 39,000  Level FlightAware
11:37PM 27.5790 50.3260 145° Southeast 531 611 39,000  Level FlightAware
11:38PM 27.4930 50.3930 145° Southeast 531 611 39,000  Level FlightAware
11:38PM 27.4250 50.4470 145° Southeast 531 611 39,000  Level FlightAware
11:39PM 27.3570 50.5010 145° Southeast 531 611 39,000  Level FlightAware
11:40PM 27.2880 50.5550 145° Southeast 531 611 39,000  Level FlightAware
11:40PM 27.2200 50.6090 145° Southeast 531 611 39,000  Level FlightAware
11:41PM 27.1340 50.6760 145° Southeast 531 611 39,000  Level FlightAware
11:42PM 26.9380 50.9110 133° Southeast 550 633 39,000  Level FlightAware
11:43PM 26.8670 51.0730 116° Southeast 555 639 39,000  Level FlightAware
11:44PM 26.7870 51.2840 113° Southeast 546 628 39,000  Level FlightAware
11:45PM 26.7380 51.3980 116° Southeast 542 624 39,000  Level FlightAware
11:45PM 26.7050 51.4740 116° Southeast 542 624 39,000  Level FlightAware
11:46PM 26.6410 51.6290 115° Southeast 544 626 39,000  Level FlightAware
11:48PM 26.5520 51.8380 115° Southeast 526 605 39,000  Level FlightAware
11:49PM 26.4750 52.0200 115° Southeast 528 608 39,000  Level FlightAware
11:50PM 26.4220 52.1450 115° Southeast 530 610 39,000 -240 Level FlightAware
11:51PM 26.3430 52.3310 115° Southeast 534 615 38,600 -660 Descending FlightAware
11:52PM 26.2970 52.4390 115° Southeast 534 615 37,700 -2,520 Descending FlightAware
11:52PM 26.2460 52.5570 116° Southeast 536 617 34,900 -2,700 Descending FlightAware
11:54PM 26.1860 52.6970 116° Southeast 529 609 33,000 -1,800 Descending FlightAware
11:54PM 26.1370 52.8110 116° Southeast 518 596 31,700 -1,620 Descending FlightAware
11:55PM 26.1040 52.8880 115° Southeast 524 603 31,000 -1,680 Descending FlightAware
11:56PM 26.0500 53.0110 116° Southeast 532 612 29,500 -1,800 Descending FlightAware
11:56PM 26.0050 53.1200 115° Southeast 522 601 28,200 -1,140 Descending FlightAware
11:57PM 25.9780 53.2090 109° East 517 595 28,000 -180 Descending FlightAware
11:58PM 25.9490 53.3280 105° East 516 594 28,000 -240 Level FlightAware
11:58PM 25.9210 53.4420 105° East 516 594 27,700 -720 Descending FlightAware
11:59PM 25.8990 53.5310 105° East 512 589 27,100 -1,080 Descending FlightAware
12:00AM 25.8680 53.6550 106° East 504 580 26,200 -1,440 Descending FlightAware
12:01AM 25.8430 53.7570 105° East 496 571 25,000 -1,680 Descending FlightAware
12:01AM 25.8180 53.8540 106° East 487 560 24,000 -1,560 Descending FlightAware
12:02AM 25.7930 53.9560 105° East 475 547 22,800 -1,560 Descending FlightAware
12:03AM 25.7690 54.0530 105° East 464 534 21,800 -1,560 Descending FlightAware
12:03AM 25.7420 54.1560 106° East 460 529 20,600 -1,560 Descending FlightAware
12:04AM 25.7200 54.2450 105° East 453 521 19,600 -1,500 Descending FlightAware
12:05AM 25.6950 54.3410 106° East 440 506 18,500 -1,560 Descending FlightAware
12:06AM 25.6690 54.4450 105° East 433 498 17,200 -1,500 Descending FlightAware
12:08AM 25.5561 54.6975 116° Southeast  Level Estimated
12:08AM 25.5970 54.7370 116° Southeast 383 441 13,900  Level FlightAware
12:09AM 25.5810 54.8570 98° East 384 442 12,900 -1,020 Descending FlightAware
12:10AM 25.5700 54.9350 99° East 382 440 12,200 -1,020 Descending FlightAware
12:10AM 25.5590 54.9630 114° Southeast 385 443 12,000 -1,020 Descending FlightAware
12:11AM 25.5210 55.0290 123° Southeast 382 440 11,300 -1,020 Descending FlightAware
12:11AM 25.4800 55.1030 122° Southeast 364 419 10,600 -900 Descending FlightAware
12:12AM 25.4460 55.1640 122° Southeast 351 404 10,100 -840 Descending FlightAware
12:12AM 25.4250 55.2020 121° Southeast 349 402 9,700 -1,140 Descending FlightAware
12:13AM 25.4020 55.2440 121° Southeast 343 395 9,100 -900 Descending FlightAware
12:13AM 25.3860 55.2720 122° Southeast 339 390 8,800 -960 Descending FlightAware
12:14AM 25.3680 55.3050 121° Southeast 337 388 8,300 -840 Descending FlightAware
12:14AM 25.3450 55.3470 121° Southeast 324 373 8,100 -240 Descending FlightAware
12:15AM 25.3250 55.3820 122° Southeast 303 349 8,100  Level FlightAware
12:15AM 25.3020 55.4230 122° Southeast 303 349 8,100 -840 Level FlightAware
12:16AM 25.2780 55.4670 121° Southeast 294 338 7,200 -2,040 Descending FlightAware
12:17AM 25.2150 55.5840 121° Southeast 265 305 4,100 -1,140 Descending FlightAware
12:20AM 25.2550 55.3643 281° West  Level Estimated
12:21AM 25.2550 55.3643 211° Southwest  Level Estimated
12:21AM 25.2160 55.4300 211° Southwest 900  Level FlightAware
12:22AM 25.2240 55.4160 302° West 154 177 600 -960 Descending FlightAware
12:22AM 25.2350 55.3970 303° West 142 163 200 -600 Descending FlightAware
12:22AM 25.2430 55.3820 301° West 114 131 100 -240 Descending FlightAware
12:27AM 25.2550 55.3643 130° Southeast  Level Estimated
12:28AM 25.2550 55.3643 130° Southeast  Level Estimated
12:29AM 25.2550 55.3643 130° Southeast  Level Estimated
12:30AM 25.2550 55.3643 130° Southeast  Level Estimated
12:31AM 25.2550 55.3643 130° Southeast  Level Estimated
12:32AM 25.2550 55.3643 130° Southeast  Level Estimated
12:33AM 25.2550 55.3643 130° Southeast  Level Estimated
12:34AM 25.2550 55.3643 130° Southeast  Level Estimated
12:35AM 25.2550 55.3643 130° Southeast  Level Estimated
12:36AM 25.2550 55.3643 130° Southeast  Level Estimated
12:37AM 25.2550 55.3643 130° Southeast  Level Estimated
12:38AM 25.2550 55.3643 130° Southeast  Level Estimated
12:39AM 25.2550 55.3643 130° Southeast  Level Estimated
12:40AM 25.2550 55.3643 130° Southeast  Level Estimated
12:41AM 25.2550 55.3643 130° Southeast  Level Estimated
12:42AM 25.2550 55.3643 130° Southeast  Level Estimated
12:43AM 25.2550 55.3643 130° Southeast  Level Estimated
12:44AM 25.2550 55.3643 130° Southeast  Level Estimated
12:45AM 25.2550 55.3643 130° Southeast  Level Estimated
12:46AM 25.2550 55.3643 130° Southeast  Level Estimated